createdAt,value
2022-12-18T00:02:27.569Z,-4.90
2022-12-18T00:06:32.044Z,-4.90
2022-12-18T00:10:37.086Z,-5.00
2022-12-18T00:14:40.642Z,-4.90
2022-12-18T00:18:45.801Z,-5.20
2022-12-18T00:22:49.283Z,-5.20
2022-12-18T00:26:54.449Z,-5.10
2022-12-18T00:31:03.620Z,-5.30
2022-12-18T00:35:08.874Z,-5.30
2022-12-18T00:39:15.339Z,-5.70
2022-12-18T00:43:20.725Z,-5.30
2022-12-18T00:47:24.447Z,-5.50
2022-12-18T00:51:28.661Z,-6.10
2022-12-18T00:55:33.168Z,-5.60
2022-12-18T00:59:38.939Z,-5.90
2022-12-18T01:03:42.933Z,-6.00
2022-12-18T01:07:46.776Z,-6.10
2022-12-18T01:11:50.759Z,-5.80
2022-12-18T01:15:56.449Z,-5.70
2022-12-18T01:20:01.057Z,-5.70
2022-12-18T01:24:05.068Z,-6.20
2022-12-18T01:28:08.920Z,-5.90
2022-12-18T01:32:14.492Z,-5.90
2022-12-18T01:36:21.531Z,-5.90
2022-12-18T01:40:25.751Z,-5.80
2022-12-18T01:44:57.596Z,-6.50
2022-12-18T01:49:04.432Z,-5.80
2022-12-18T01:53:14.304Z,-5.90
2022-12-18T01:57:18.618Z,-6.10
2022-12-18T02:01:26.313Z,-6.10
2022-12-18T02:05:47.991Z,-6.00
2022-12-18T02:09:59.831Z,-6.00
2022-12-18T02:14:15.012Z,-6.60
2022-12-18T02:18:24.313Z,-6.70
2022-12-18T02:22:41.110Z,-6.60
2022-12-18T02:26:52.471Z,-6.30
2022-12-18T02:30:58.793Z,-6.30
2022-12-18T02:35:04.710Z,-6.70
2022-12-18T02:39:11.734Z,-6.20
2022-12-18T02:43:18.527Z,-6.90
2022-12-18T02:47:24.485Z,-6.20
2022-12-18T02:51:36.457Z,-6.40
2022-12-18T02:55:53.558Z,-6.70
2022-12-18T03:00:05.199Z,-6.70
2022-12-18T03:04:15.058Z,-7.00
2022-12-18T03:08:23.130Z,-6.40
2022-12-18T03:12:34.109Z,-6.30
2022-12-18T03:16:40.346Z,-7.10
2022-12-18T03:20:47.563Z,-6.60
2022-12-18T03:24:52.206Z,-6.60
2022-12-18T03:29:00.446Z,-6.60
2022-12-18T03:33:13.077Z,-6.70
2022-12-18T03:37:17.490Z,-6.70
2022-12-18T03:41:30.628Z,-6.70
2022-12-18T03:45:39.651Z,-6.80
2022-12-18T03:49:51.907Z,-6.60
2022-12-18T03:54:00.691Z,-6.70
2022-12-18T03:58:09.630Z,-6.60
2022-12-18T04:02:13.878Z,-6.80
2022-12-18T04:06:40.490Z,-7.00
2022-12-18T04:10:44.844Z,-7.00
2022-12-18T04:14:48.744Z,-6.70
2022-12-18T04:18:52.927Z,-7.20
2022-12-18T04:22:59.384Z,-7.40
2022-12-18T04:27:04.301Z,-7.40
2022-12-18T04:31:10.386Z,-7.20
2022-12-18T04:35:14.381Z,-6.80
2022-12-18T04:39:19.741Z,-6.80
2022-12-18T04:43:24.007Z,-6.80
2022-12-18T04:47:27.812Z,-7.30
2022-12-18T04:51:32.185Z,-6.80
2022-12-18T04:55:37.635Z,-6.90
2022-12-18T04:59:42.513Z,-7.30
2022-12-18T05:03:46.409Z,-7.00
2022-12-18T05:07:50.806Z,-7.60
2022-12-18T05:11:56.876Z,-7.10
2022-12-18T05:16:01.784Z,-7.10
2022-12-18T05:20:06.028Z,-7.50
2022-12-18T05:24:10.121Z,-7.00
2022-12-18T05:28:15.034Z,-7.10
2022-12-18T05:32:18.788Z,-7.20
2022-12-18T05:36:22.372Z,-7.10
2022-12-18T05:40:26.048Z,-7.00
2022-12-18T05:44:31.823Z,-7.20
2022-12-18T05:48:36.168Z,-7.10
2022-12-18T05:52:39.768Z,-7.20
2022-12-18T05:56:48.491Z,-7.20
2022-12-18T06:00:54.554Z,-7.20
2022-12-18T06:04:58.747Z,-7.20
2022-12-18T06:09:02.541Z,-7.20
2022-12-18T06:13:06.929Z,-7.20
2022-12-18T06:17:11.874Z,-7.20
2022-12-18T06:21:15.399Z,-7.10
2022-12-18T06:25:19.500Z,-7.10
2022-12-18T06:29:23.153Z,-7.30
2022-12-18T06:33:30.444Z,-6.80
2022-12-18T06:37:34.060Z,-6.60
2022-12-18T06:41:37.894Z,-6.50
2022-12-18T06:45:42.296Z,-6.30
2022-12-18T06:49:48.391Z,-6.10
2022-12-18T06:53:52.151Z,-6.00
2022-12-18T06:57:56.278Z,-5.90
2022-12-18T07:01:59.923Z,-5.50
2022-12-18T07:06:05.877Z,-5.50
2022-12-18T07:10:09.863Z,-5.40
2022-12-18T07:14:13.397Z,-5.40
2022-12-18T07:18:17.068Z,-5.30
2022-12-18T07:22:22.168Z,-5.10
2022-12-18T07:26:25.880Z,-5.00
2022-12-18T07:30:29.668Z,-4.90
2022-12-18T07:34:33.216Z,-4.90
2022-12-18T07:38:38.708Z,-4.50
2022-12-18T07:42:43.031Z,-4.50
2022-12-18T07:46:47.327Z,-4.60
2022-12-18T07:50:51.461Z,-4.40
2022-12-18T07:54:56.846Z,-4.10
2022-12-18T07:59:01.181Z,-4.20
2022-12-18T08:03:04.925Z,-3.90
2022-12-18T08:07:11.936Z,-3.80
2022-12-18T08:11:16.876Z,-3.90
2022-12-18T08:15:20.722Z,-3.70
2022-12-18T08:19:24.272Z,-3.40
2022-12-18T08:23:28.971Z,-3.30
2022-12-18T08:27:34.124Z,-3.00
2022-12-18T08:31:37.987Z,-2.90
2022-12-18T08:35:45.780Z,-2.70
2022-12-18T08:39:49.896Z,-2.60
2022-12-18T08:44:12.383Z,-3.20
2022-12-18T08:48:21.875Z,-3.20
2022-12-18T08:52:26.019Z,-3.00
2022-12-18T08:56:31.032Z,-2.90
2022-12-18T09:00:36.448Z,-2.60
2022-12-18T09:04:41.078Z,-2.60
2022-12-18T09:08:45.072Z,-2.50
2022-12-18T09:12:48.621Z,-2.50
2022-12-18T09:16:54.403Z,-2.40
2022-12-18T09:20:58.105Z,-2.50
2022-12-18T09:25:01.545Z,-2.60
2022-12-18T09:29:05.924Z,-2.60
2022-12-18T09:33:11.351Z,-2.30
2022-12-18T09:37:14.960Z,-2.30
2022-12-18T09:41:38.117Z,-2.40
2022-12-18T09:45:45.978Z,-2.20
2022-12-18T09:49:55.209Z,-2.10
2022-12-18T09:54:03.050Z,-1.60
2022-12-18T09:58:22.024Z,-1.30
2022-12-18T10:02:28.043Z,-1.40
2022-12-18T10:06:41.821Z,-1.30
2022-12-18T10:10:51.395Z,-1.40
2022-12-18T10:15:00.514Z,-1.40
2022-12-18T10:19:15.805Z,-1.30
2022-12-18T10:23:28.669Z,-1.10
2022-12-18T10:27:33.026Z,-0.50
2022-12-18T10:31:37.281Z,-0.20
2022-12-18T10:35:44.184Z,-0.20
2022-12-18T10:40:22.400Z,-0.20
2022-12-18T10:44:27.286Z,-0.60
2022-12-18T10:48:32.282Z,-0.40
2022-12-18T10:52:37.772Z,-0.60
2022-12-18T10:56:46.806Z,-0.30
2022-12-18T11:01:09.399Z,-0.50
2022-12-18T11:05:31.167Z,-0.40
2022-12-18T11:09:36.568Z,-0.50
2022-12-18T11:13:42.405Z,-0.50
2022-12-18T11:17:50.014Z,-0.40
2022-12-18T11:21:53.680Z,-0.30
2022-12-18T11:26:02.907Z,-0.50
2022-12-18T11:30:23.078Z,-0.50
2022-12-18T11:34:31.364Z,-0.40
2022-12-18T11:38:37.947Z,-0.30
2022-12-18T11:42:48.139Z,-0.60
2022-12-18T11:46:58.663Z,-0.70
2022-12-18T11:51:05.403Z,-0.50
2022-12-18T11:55:16.432Z,-0.60
2022-12-18T11:59:35.288Z,-0.90
2022-12-18T12:04:05.011Z,-0.80
2022-12-18T12:08:19.142Z,-0.60
2022-12-18T12:12:49.070Z,-0.70
2022-12-18T12:17:00.042Z,-0.80
2022-12-18T12:21:12.417Z,-0.90
2022-12-18T12:25:35.662Z,-1.00
2022-12-18T12:29:52.338Z,-1.00
2022-12-18T12:38:30.019Z,-1.10
2022-12-18T12:42:55.862Z,-1.20
2022-12-18T12:47:04.652Z,-1.10
2022-12-18T12:51:18.573Z,-1.30
2022-12-18T12:55:26.318Z,-1.30
2022-12-18T12:59:41.219Z,-1.20
2022-12-18T13:03:51.347Z,-1.50
2022-12-18T13:07:59.068Z,-1.50
2022-12-18T13:12:29.081Z,-1.50
2022-12-18T13:16:32.463Z,-1.60
2022-12-18T13:20:37.381Z,-1.30
2022-12-18T13:24:42.386Z,-2.10
2022-12-18T13:28:55.592Z,-1.50
2022-12-18T13:33:56.305Z,-1.50
2022-12-18T13:38:02.255Z,-1.80
2022-12-18T13:42:58.218Z,-1.80
2022-12-18T13:47:04.767Z,-1.60
2022-12-18T13:51:12.197Z,-2.00
2022-12-18T13:55:21.034Z,-2.00
2022-12-18T13:59:26.530Z,-1.90
2022-12-18T14:03:33.063Z,-1.80
2022-12-18T14:07:41.889Z,-2.10
2022-12-18T14:11:52.403Z,-2.00
2022-12-18T14:15:56.689Z,-2.00
2022-12-18T14:20:02.801Z,-1.90
2022-12-18T14:24:08.867Z,-1.90
2022-12-18T14:28:18.047Z,-1.80
2022-12-18T14:32:23.696Z,-2.00
2022-12-18T14:36:30.816Z,-2.10
2022-12-18T14:40:34.451Z,-2.20
2022-12-18T14:44:50.787Z,-2.40
2022-12-18T14:49:02.680Z,-2.40
2022-12-18T14:53:07.329Z,-2.40
2022-12-18T14:57:24.973Z,-2.40
2022-12-18T15:01:32.601Z,-2.30
2022-12-18T15:05:38.130Z,-2.10
2022-12-18T15:09:46.066Z,-2.40
2022-12-18T15:13:50.305Z,-2.30
2022-12-18T15:18:01.441Z,-2.20
2022-12-18T15:22:06.771Z,-2.20
2022-12-18T15:26:14.487Z,-2.20
2022-12-18T15:30:26.496Z,-2.10
2022-12-18T15:34:32.989Z,-2.00
2022-12-18T15:38:37.662Z,-2.20
2022-12-18T15:43:02.558Z,-2.10
2022-12-18T15:47:10.615Z,-2.30
2022-12-18T15:51:19.217Z,-2.00
2022-12-18T15:56:01.007Z,-2.00
2022-12-18T16:00:09.328Z,-2.10
2022-12-18T16:04:16.226Z,-2.00
2022-12-18T16:08:24.385Z,-2.20
2022-12-18T16:12:29.210Z,-2.10
2022-12-18T16:16:34.414Z,-2.10
2022-12-18T16:20:40.309Z,-2.30
2022-12-18T16:24:45.438Z,-2.20
2022-12-18T16:28:50.448Z,-2.10
2022-12-18T16:32:56.986Z,-2.10
2022-12-18T16:37:05.726Z,-2.30
2022-12-18T16:41:37.455Z,-2.30
2022-12-18T16:45:41.620Z,-2.40
2022-12-18T16:49:52.238Z,-2.40
2022-12-18T16:53:58.264Z,-2.10
2022-12-18T16:58:04.046Z,-2.30
2022-12-18T17:02:09.938Z,-2.00
2022-12-18T17:06:16.209Z,-2.00
2022-12-18T17:10:22.296Z,-2.00
2022-12-18T17:14:31.114Z,-1.90
2022-12-18T17:18:37.217Z,-1.90
2022-12-18T17:22:52.258Z,-2.00
2022-12-18T17:26:56.979Z,-2.00
2022-12-18T17:31:01.290Z,-2.00
2022-12-18T17:35:07.450Z,-2.00
2022-12-18T17:39:21.065Z,-2.00
2022-12-18T17:43:25.162Z,-2.20
2022-12-18T17:47:29.776Z,-2.30
2022-12-18T17:51:35.592Z,-2.10
2022-12-18T17:55:41.688Z,-2.10
2022-12-18T17:59:46.887Z,-2.10
2022-12-18T18:03:53.716Z,-2.10
2022-12-18T18:07:59.257Z,-2.20
2022-12-18T18:12:23.641Z,-2.00
2022-12-18T18:16:28.492Z,-2.00
2022-12-18T18:20:41.679Z,-2.00
2022-12-18T18:24:47.179Z,-2.00
2022-12-18T18:28:58.500Z,-1.90
2022-12-18T18:33:10.330Z,-1.80
2022-12-18T18:37:17.937Z,-2.10
2022-12-18T18:41:24.750Z,-2.10
2022-12-18T18:45:30.521Z,-2.10
2022-12-18T18:49:35.954Z,-1.90
2022-12-18T18:53:41.404Z,-1.80
2022-12-18T18:57:47.035Z,-1.90
2022-12-18T19:01:53.705Z,-1.80
2022-12-18T19:06:00.213Z,-2.10
2022-12-18T19:10:05.523Z,-1.90
2022-12-18T19:14:12.863Z,-1.80
2022-12-18T19:18:25.077Z,-2.00
2022-12-18T19:22:29.533Z,-1.80
2022-12-18T19:26:35.196Z,-1.90
2022-12-18T19:30:42.393Z,-1.80
2022-12-18T19:34:50.113Z,-1.80
2022-12-18T19:39:03.060Z,-1.90
2022-12-18T19:43:07.717Z,-1.80
2022-12-18T19:47:12.584Z,-2.00
2022-12-18T19:51:23.810Z,-1.80
2022-12-18T19:55:30.004Z,-1.90
2022-12-18T19:59:36.492Z,-1.80
2022-12-18T20:03:44.250Z,-1.90
2022-12-18T20:07:59.689Z,-1.80
2022-12-18T20:12:04.308Z,-1.90
2022-12-18T20:16:11.348Z,-1.70
2022-12-18T20:20:17.097Z,-1.80
2022-12-18T20:24:25.539Z,-1.70
2022-12-18T20:28:29.900Z,-1.80
2022-12-18T20:32:37.269Z,-1.90
2022-12-18T20:36:42.231Z,-1.70
2022-12-18T20:41:43.167Z,-1.80
2022-12-18T20:45:49.906Z,-1.80
2022-12-18T20:49:53.873Z,-2.00
2022-12-18T20:54:00.786Z,-2.00
2022-12-18T20:58:06.002Z,-2.00
2022-12-18T21:02:12.289Z,-2.00
2022-12-18T21:06:19.299Z,-2.00
2022-12-18T21:10:23.014Z,-1.90
2022-12-18T21:14:29.988Z,-2.00
2022-12-18T21:18:33.959Z,-1.90
2022-12-18T21:22:38.580Z,-1.80
2022-12-18T21:26:45.787Z,-1.90
2022-12-18T21:30:51.141Z,-1.70
2022-12-18T21:35:08.506Z,-1.80
2022-12-18T21:39:12.816Z,-1.70
2022-12-18T21:43:35.305Z,-1.90
2022-12-18T21:47:42.918Z,-1.90
2022-12-18T21:51:47.197Z,-2.10
2022-12-18T21:55:58.868Z,-1.80
2022-12-18T22:00:03.541Z,-2.00
2022-12-18T22:04:16.981Z,-2.10
2022-12-18T22:08:22.565Z,-1.90
2022-12-18T22:12:44.080Z,-1.70
2022-12-18T22:16:49.502Z,-1.80
2022-12-18T22:21:04.783Z,-1.70
2022-12-18T22:25:10.593Z,-1.80
2022-12-18T22:29:40.555Z,-1.80
2022-12-18T22:33:44.762Z,-1.70
2022-12-18T22:37:54.327Z,-1.70
2022-12-18T22:41:59.189Z,-1.60
2022-12-18T22:46:17.056Z,-1.70
2022-12-18T22:50:22.958Z,-1.80
2022-12-18T22:54:31.323Z,-1.70
2022-12-18T22:58:35.914Z,-1.80
2022-12-18T23:02:40.715Z,-1.60
2022-12-18T23:06:45.918Z,-1.80
2022-12-18T23:10:55.413Z,-1.70
2022-12-18T23:14:59.426Z,-1.80
2022-12-18T23:19:03.628Z,-1.90
2022-12-18T23:23:07.316Z,-1.80
2022-12-18T23:27:12.385Z,-1.70
2022-12-18T23:31:18.217Z,-1.60
2022-12-18T23:35:22.211Z,-1.60
2022-12-18T23:39:29.329Z,-1.70
2022-12-18T23:43:35.476Z,-1.80
2022-12-18T23:47:39.482Z,-1.70
2022-12-18T23:51:44.509Z,-1.80
2022-12-18T23:55:49.923Z,-1.70
2022-12-18T23:59:57.145Z,-1.80
